createdAt,value
2023-02-06T00:00:18.341Z,6.00
2023-02-06T00:01:18.330Z,6.60
2023-02-06T00:02:18.381Z,6.50
2023-02-06T00:03:18.307Z,7.00
2023-02-06T00:04:18.306Z,6.90
2023-02-06T00:05:18.355Z,6.40
2023-02-06T00:06:18.331Z,7.00
2023-02-06T00:07:18.262Z,6.10
2023-02-06T00:08:18.256Z,6.40
2023-02-06T00:09:18.239Z,7.30
2023-02-06T00:10:18.260Z,6.10
2023-02-06T00:11:18.249Z,6.70
2023-02-06T00:12:18.214Z,6.20
2023-02-06T00:13:18.201Z,6.80
2023-02-06T00:14:18.201Z,6.70
2023-02-06T00:15:18.211Z,6.70
2023-02-06T00:16:18.239Z,6.90
2023-02-06T00:17:18.170Z,5.90
2023-02-06T00:18:18.172Z,5.90
2023-02-06T00:19:18.143Z,6.30
2023-02-06T00:20:18.132Z,6.30
2023-02-06T00:21:18.141Z,6.40
2023-02-06T00:22:18.117Z,6.10
2023-02-06T00:23:18.150Z,6.70
2023-02-06T00:24:18.113Z,6.90
2023-02-06T00:25:18.094Z,6.60
2023-02-06T00:26:18.102Z,6.60
2023-02-06T00:27:18.060Z,5.90
2023-02-06T00:28:18.099Z,6.30
2023-02-06T00:29:18.047Z,6.10
2023-02-06T00:30:18.040Z,5.70
2023-02-06T00:31:18.127Z,6.20
2023-02-06T00:32:18.057Z,6.10
2023-02-06T00:33:19.306Z,5.90
2023-02-06T00:34:18.013Z,5.00
2023-02-06T00:35:17.991Z,5.90
2023-02-06T00:36:17.983Z,6.30
2023-02-06T00:37:17.972Z,5.40
2023-02-06T00:38:17.957Z,5.30
2023-02-06T00:39:17.948Z,5.10
2023-02-06T00:40:17.939Z,5.20
2023-02-06T00:41:17.928Z,5.00
2023-02-06T00:42:17.945Z,4.80
2023-02-06T00:43:17.918Z,4.60
2023-02-06T00:44:17.897Z,5.20
2023-02-06T00:45:17.896Z,5.00
2023-02-06T00:46:17.923Z,4.80
2023-02-06T00:47:17.873Z,4.80
2023-02-06T00:48:17.869Z,4.60
2023-02-06T00:49:17.850Z,5.00
2023-02-06T00:50:17.841Z,4.90
2023-02-06T00:51:17.842Z,5.10
2023-02-06T00:52:17.826Z,5.30
2023-02-06T00:53:17.808Z,5.70
2023-02-06T00:54:17.806Z,5.30
2023-02-06T00:55:17.791Z,5.20
2023-02-06T00:56:17.798Z,5.30
2023-02-06T00:57:17.780Z,5.60
2023-02-06T00:58:17.773Z,4.40
2023-02-06T00:59:17.756Z,5.10
2023-02-06T01:00:17.754Z,4.10
2023-02-06T01:01:17.875Z,4.50
2023-02-06T01:02:17.726Z,4.30
2023-02-06T01:03:17.736Z,4.70
2023-02-06T01:04:17.700Z,4.30
2023-02-06T01:05:17.691Z,4.60
2023-02-06T01:06:17.683Z,4.40
2023-02-06T01:07:17.690Z,4.40
2023-02-06T01:08:17.758Z,4.50
2023-02-06T01:09:17.644Z,4.80
2023-02-06T01:10:17.658Z,4.50
2023-02-06T01:11:17.698Z,5.00
2023-02-06T01:12:17.635Z,4.30
2023-02-06T01:13:17.617Z,4.40
2023-02-06T01:14:17.625Z,4.10
2023-02-06T01:15:17.588Z,3.70
2023-02-06T01:16:17.688Z,4.10
2023-02-06T01:17:17.586Z,4.70
2023-02-06T01:18:17.576Z,5.20
2023-02-06T01:19:17.546Z,3.80
2023-02-06T01:20:17.549Z,4.30
2023-02-06T01:21:17.640Z,4.20
2023-02-06T01:22:17.536Z,4.30
2023-02-06T01:23:17.505Z,4.20
2023-02-06T01:24:17.503Z,4.10
2023-02-06T01:25:17.493Z,4.20
2023-02-06T01:26:17.495Z,4.40
2023-02-06T01:27:17.471Z,4.20
2023-02-06T01:28:17.502Z,4.70
2023-02-06T01:29:17.456Z,4.30
2023-02-06T01:30:17.437Z,4.20
2023-02-06T01:31:17.515Z,4.50
2023-02-06T01:32:17.422Z,4.60
2023-02-06T01:33:17.409Z,4.00
2023-02-06T01:34:17.411Z,4.00
2023-02-06T01:35:17.432Z,4.40
2023-02-06T01:36:17.435Z,4.50
2023-02-06T01:37:17.360Z,4.40
2023-02-06T01:38:17.372Z,4.10
2023-02-06T01:39:17.351Z,4.40
2023-02-06T01:40:17.342Z,4.30
2023-02-06T01:41:17.354Z,4.50
2023-02-06T01:42:17.348Z,3.90
2023-02-06T01:43:17.320Z,4.60
2023-02-06T01:44:17.319Z,4.20
2023-02-06T01:45:17.292Z,4.10
2023-02-06T01:46:17.342Z,4.30
2023-02-06T01:47:17.262Z,4.80
2023-02-06T01:48:17.312Z,4.60
2023-02-06T01:49:17.250Z,4.10
2023-02-06T01:50:17.238Z,4.30
2023-02-06T01:51:17.274Z,4.20
2023-02-06T01:52:17.229Z,4.80
2023-02-06T01:53:17.203Z,4.80
2023-02-06T01:54:17.201Z,4.00
2023-02-06T01:55:17.228Z,4.50
2023-02-06T01:56:17.196Z,4.10
2023-02-06T01:57:17.165Z,4.50
2023-02-06T01:58:17.237Z,4.30
2023-02-06T01:59:17.140Z,4.60
2023-02-06T02:00:17.156Z,3.60
2023-02-06T02:01:17.197Z,4.70
2023-02-06T02:02:17.214Z,3.80
2023-02-06T02:03:17.109Z,4.20
2023-02-06T02:04:17.126Z,3.80
2023-02-06T02:05:17.102Z,4.40
2023-02-06T02:06:17.104Z,3.70
2023-02-06T02:07:17.068Z,4.00
2023-02-06T02:08:17.054Z,4.30
2023-02-06T02:09:17.066Z,3.90
2023-02-06T02:10:17.080Z,3.70
2023-02-06T02:11:17.084Z,4.40
2023-02-06T02:12:17.037Z,3.60
2023-02-06T02:13:17.013Z,3.50
2023-02-06T02:14:17.018Z,4.00
2023-02-06T02:15:17.012Z,4.10
2023-02-06T02:16:17.057Z,3.80
2023-02-06T02:17:16.968Z,4.00
2023-02-06T02:18:16.964Z,4.30
2023-02-06T02:19:16.966Z,4.00
2023-02-06T02:20:16.943Z,4.10
2023-02-06T02:21:16.972Z,3.90
2023-02-06T02:22:16.934Z,4.50
2023-02-06T02:23:16.971Z,4.30
2023-02-06T02:24:16.923Z,3.70
2023-02-06T02:25:22.913Z,4.30
2023-02-06T02:26:16.887Z,4.10
2023-02-06T02:27:16.893Z,5.00
2023-02-06T02:28:16.942Z,3.70
2023-02-06T02:29:16.857Z,3.80
2023-02-06T02:30:16.888Z,4.00
2023-02-06T02:31:16.869Z,4.80
2023-02-06T02:32:16.868Z,4.40
2023-02-06T02:33:16.836Z,4.90
2023-02-06T02:34:16.805Z,4.20
2023-02-06T02:35:16.835Z,4.60
2023-02-06T02:36:16.806Z,4.60
2023-02-06T02:37:16.778Z,4.70
2023-02-06T02:38:16.781Z,5.00
2023-02-06T02:39:16.756Z,4.70
2023-02-06T02:40:16.758Z,4.40
2023-02-06T02:41:16.737Z,4.10
2023-02-06T02:42:16.735Z,3.90
2023-02-06T02:43:16.760Z,4.50
2023-02-06T02:44:16.731Z,4.30
2023-02-06T02:45:16.697Z,3.40
2023-02-06T02:46:16.691Z,3.70
2023-02-06T02:47:16.674Z,4.00
2023-02-06T02:48:16.684Z,3.90
2023-02-06T02:49:16.666Z,4.90
2023-02-06T02:50:16.655Z,4.40
2023-02-06T02:51:16.661Z,3.90
2023-02-06T02:52:16.636Z,4.00
2023-02-06T02:53:16.647Z,4.20
2023-02-06T02:54:16.607Z,3.60
2023-02-06T02:55:16.599Z,3.80
2023-02-06T02:56:16.594Z,4.00
2023-02-06T02:57:16.588Z,4.00
2023-02-06T02:58:16.563Z,4.10
2023-02-06T02:59:16.553Z,4.60
2023-02-06T03:00:16.536Z,3.90
2023-02-06T03:01:16.654Z,4.20
2023-02-06T03:02:16.552Z,4.60
2023-02-06T03:03:16.521Z,4.60
2023-02-06T03:04:16.514Z,4.00
2023-02-06T03:05:16.512Z,3.70
2023-02-06T03:06:16.483Z,3.90
2023-02-06T03:07:16.490Z,3.80
2023-02-06T03:08:16.464Z,4.40
2023-02-06T03:09:16.459Z,4.60
2023-02-06T03:10:16.444Z,4.40
2023-02-06T03:11:16.451Z,4.40
2023-02-06T03:12:16.422Z,4.80
2023-02-06T03:13:16.445Z,4.60
2023-02-06T03:14:16.401Z,4.30
2023-02-06T03:15:16.408Z,4.70
2023-02-06T03:16:16.393Z,4.00
2023-02-06T03:17:16.412Z,4.40
2023-02-06T03:18:16.369Z,4.70
2023-02-06T03:19:16.353Z,5.20
2023-02-06T03:20:16.336Z,4.70
2023-02-06T03:21:16.342Z,4.40
2023-02-06T03:22:16.369Z,4.70
2023-02-06T03:23:16.318Z,4.40
2023-02-06T03:24:16.300Z,5.20
2023-02-06T03:25:16.301Z,4.10
2023-02-06T03:26:16.299Z,4.60
2023-02-06T03:27:16.304Z,4.90
2023-02-06T03:28:16.285Z,4.30
2023-02-06T03:29:16.257Z,4.90
2023-02-06T03:30:16.232Z,5.00
2023-02-06T03:31:16.274Z,4.00
2023-02-06T03:32:16.230Z,4.60
2023-02-06T03:33:16.227Z,4.10
2023-02-06T03:34:16.199Z,4.30
2023-02-06T03:35:16.207Z,4.50
2023-02-06T03:36:16.186Z,4.40
2023-02-06T03:37:16.217Z,5.00
2023-02-06T03:38:16.171Z,4.80
2023-02-06T03:39:16.164Z,4.10
2023-02-06T03:40:16.163Z,5.00
2023-02-06T03:41:16.148Z,5.20
2023-02-06T03:42:16.143Z,4.60
2023-02-06T03:43:16.117Z,4.40
2023-02-06T03:44:16.131Z,4.60
2023-02-06T03:45:16.135Z,4.40
2023-02-06T03:46:16.191Z,3.90
2023-02-06T03:47:16.087Z,4.10
2023-02-06T03:48:16.060Z,4.70
2023-02-06T03:49:16.064Z,4.10
2023-02-06T03:50:16.047Z,5.20
2023-02-06T03:51:16.035Z,4.00
2023-02-06T03:52:16.038Z,4.40
2023-02-06T03:53:16.021Z,4.60
2023-02-06T03:54:16.025Z,4.50
2023-02-06T03:55:15.995Z,4.10
2023-02-06T03:56:15.985Z,4.50
2023-02-06T03:57:15.996Z,4.00
2023-02-06T03:58:15.986Z,5.00
2023-02-06T03:59:16.000Z,4.30
2023-02-06T04:00:15.955Z,3.70
2023-02-06T04:01:16.047Z,4.10
2023-02-06T04:02:15.974Z,3.50
2023-02-06T04:03:15.984Z,4.00
2023-02-06T04:04:15.920Z,4.20
2023-02-06T04:05:15.908Z,4.30
2023-02-06T04:06:15.885Z,3.70
2023-02-06T04:07:15.914Z,4.00
2023-02-06T04:08:15.874Z,4.00
2023-02-06T04:09:15.865Z,4.10
2023-02-06T04:10:15.868Z,3.90
2023-02-06T04:11:15.843Z,3.90
2023-02-06T04:12:15.891Z,3.60
2023-02-06T04:13:15.824Z,4.20
2023-02-06T04:14:15.826Z,3.70
2023-02-06T04:15:15.851Z,4.20
2023-02-06T04:16:15.871Z,3.60
2023-02-06T04:17:31.312Z,3.70
2023-02-06T04:18:15.792Z,4.50
2023-02-06T04:19:15.800Z,3.40
2023-02-06T04:20:15.758Z,4.00
2023-02-06T04:21:15.777Z,4.10
2023-02-06T04:22:15.743Z,3.50
2023-02-06T04:23:15.748Z,3.90
2023-02-06T04:24:15.744Z,3.70
2023-02-06T04:25:15.715Z,4.00
2023-02-06T04:26:15.702Z,3.50
2023-02-06T04:27:15.741Z,4.00
2023-02-06T04:28:15.775Z,4.00
2023-02-06T04:29:15.678Z,3.80
2023-02-06T04:30:15.712Z,3.60
2023-02-06T04:31:15.851Z,3.50
2023-02-06T04:32:15.662Z,4.40
2023-02-06T04:33:15.656Z,4.10
2023-02-06T04:34:15.632Z,3.60
2023-02-06T04:35:15.664Z,3.90
2023-02-06T04:36:15.600Z,4.10
2023-02-06T04:37:15.614Z,3.60
2023-02-06T04:38:15.607Z,3.70
2023-02-06T04:39:15.586Z,3.80
2023-02-06T04:40:15.576Z,3.60
2023-02-06T04:41:15.564Z,3.60
2023-02-06T04:42:15.566Z,3.30
2023-02-06T04:43:15.544Z,3.90
2023-02-06T04:44:15.554Z,3.50
2023-02-06T04:45:15.521Z,3.30
2023-02-06T04:46:15.532Z,3.60
2023-02-06T04:47:15.550Z,3.50
2023-02-06T04:48:15.485Z,3.50
2023-02-06T04:49:15.495Z,3.60
2023-02-06T04:50:15.468Z,3.60
2023-02-06T04:51:15.460Z,3.70
2023-02-06T04:52:15.454Z,3.40
2023-02-06T04:53:15.447Z,3.40
2023-02-06T04:54:15.448Z,3.60
2023-02-06T04:55:15.422Z,4.50
2023-02-06T04:56:15.420Z,3.90
2023-02-06T04:57:15.410Z,3.20
2023-02-06T04:58:15.397Z,3.50
2023-02-06T04:59:15.387Z,3.70
2023-02-06T05:00:15.381Z,3.30
2023-02-06T05:01:15.396Z,3.60
2023-02-06T05:02:15.402Z,3.20
2023-02-06T05:03:15.350Z,3.80
2023-02-06T05:04:15.336Z,3.60
2023-02-06T05:05:15.349Z,3.50
2023-02-06T05:06:15.309Z,3.30
2023-02-06T05:07:15.327Z,3.70
2023-02-06T05:08:15.294Z,3.80
2023-02-06T05:09:15.276Z,2.80
2023-02-06T05:10:15.295Z,3.30
2023-02-06T05:11:15.259Z,3.10
2023-02-06T05:12:15.257Z,3.60
2023-02-06T05:13:15.231Z,3.30
2023-02-06T05:14:15.237Z,4.00
2023-02-06T05:15:15.236Z,7.30
2023-02-06T05:16:15.227Z,3.80
2023-02-06T05:17:15.231Z,3.80
2023-02-06T05:18:15.198Z,3.60
2023-02-06T05:19:15.197Z,3.10
2023-02-06T05:20:15.178Z,3.70
2023-02-06T05:21:15.178Z,3.70
2023-02-06T05:22:15.134Z,3.00
2023-02-06T05:23:15.139Z,2.80
2023-02-06T05:24:15.127Z,3.60
2023-02-06T05:25:15.157Z,3.10
2023-02-06T05:26:15.102Z,2.90
2023-02-06T05:27:15.106Z,3.10
2023-02-06T05:28:15.141Z,2.90
2023-02-06T05:29:15.072Z,3.60
2023-02-06T05:30:15.107Z,3.10
2023-02-06T05:31:15.194Z,3.70
2023-02-06T05:32:15.089Z,3.10
2023-02-06T05:33:15.038Z,2.80
2023-02-06T05:34:15.027Z,2.60
2023-02-06T05:35:15.019Z,3.20
2023-02-06T05:36:15.002Z,2.60
2023-02-06T05:37:15.007Z,3.30
2023-02-06T05:38:14.996Z,3.00
2023-02-06T05:39:15.002Z,3.10
2023-02-06T05:40:14.995Z,3.20
2023-02-06T05:41:14.963Z,3.20
2023-02-06T05:42:14.937Z,2.90
2023-02-06T05:43:14.952Z,2.70
2023-02-06T05:44:14.936Z,3.00
2023-02-06T05:45:14.978Z,3.00
2023-02-06T05:46:14.956Z,2.90
2023-02-06T05:47:14.902Z,2.70
2023-02-06T05:48:14.887Z,3.10
2023-02-06T05:49:14.880Z,3.40
2023-02-06T05:50:14.865Z,3.30
2023-02-06T05:51:14.927Z,2.90
2023-02-06T05:52:14.843Z,3.10
2023-02-06T05:53:14.873Z,3.50
2023-02-06T05:54:14.828Z,2.90
2023-02-06T05:55:14.829Z,3.40
2023-02-06T05:56:14.805Z,3.20
2023-02-06T05:57:14.801Z,3.10
2023-02-06T05:58:14.798Z,3.00
2023-02-06T05:59:14.802Z,3.30
2023-02-06T06:00:14.777Z,3.00
2023-02-06T06:01:14.765Z,3.30
2023-02-06T06:02:14.757Z,3.00
2023-02-06T06:03:14.791Z,3.40
2023-02-06T06:04:14.875Z,2.70
2023-02-06T06:05:14.736Z,3.80
2023-02-06T06:06:14.706Z,3.00
2023-02-06T06:07:14.742Z,3.10
2023-02-06T06:08:14.697Z,2.70
2023-02-06T06:09:14.719Z,3.10
2023-02-06T06:10:14.666Z,3.00
2023-02-06T06:11:14.675Z,2.90
2023-02-06T06:12:14.669Z,3.10
2023-02-06T06:13:14.654Z,3.30
2023-02-06T06:14:14.646Z,2.80
2023-02-06T06:15:14.597Z,3.40
2023-02-06T06:16:14.567Z,3.20
2023-02-06T06:17:14.627Z,3.40
2023-02-06T06:18:14.608Z,3.10
2023-02-06T06:19:14.546Z,3.20
2023-02-06T06:20:14.539Z,3.50
2023-02-06T06:21:14.519Z,2.90
2023-02-06T06:22:14.508Z,3.00
2023-02-06T06:23:14.516Z,3.10
2023-02-06T06:24:14.489Z,3.00
2023-02-06T06:25:14.491Z,3.60
2023-02-06T06:26:14.468Z,3.20
2023-02-06T06:27:14.533Z,3.00
2023-02-06T06:28:14.470Z,3.30
2023-02-06T06:29:14.441Z,3.40
2023-02-06T06:30:14.478Z,2.70
2023-02-06T06:31:14.460Z,3.10
2023-02-06T06:32:14.420Z,2.80
2023-02-06T06:33:14.402Z,2.60
2023-02-06T06:34:14.417Z,3.60
2023-02-06T06:35:14.382Z,3.10
2023-02-06T06:36:14.638Z,3.50
2023-02-06T06:37:14.338Z,3.10
2023-02-06T06:38:14.362Z,3.30
2023-02-06T06:39:14.332Z,3.20
2023-02-06T06:40:14.312Z,3.30
2023-02-06T06:41:14.302Z,3.60
2023-02-06T06:42:14.312Z,3.70
2023-02-06T06:43:14.306Z,3.40
2023-02-06T06:44:14.275Z,4.10
2023-02-06T06:45:14.293Z,3.50
2023-02-06T06:46:14.291Z,4.60
2023-02-06T06:47:14.244Z,3.60
2023-02-06T06:48:14.254Z,3.80
2023-02-06T06:49:14.218Z,4.30
2023-02-06T06:50:14.209Z,3.40
2023-02-06T06:51:14.243Z,3.50
2023-02-06T06:52:24.428Z,3.60
2023-02-06T06:53:14.193Z,4.10
2023-02-06T06:54:14.208Z,3.40
2023-02-06T06:55:14.170Z,3.20
2023-02-06T06:56:14.178Z,4.00
2023-02-06T06:57:14.144Z,2.90
2023-02-06T06:58:14.154Z,3.70
2023-02-06T06:59:14.128Z,3.20
2023-02-06T07:00:14.121Z,3.40
2023-02-06T07:01:14.131Z,3.40
2023-02-06T07:02:14.099Z,3.40
2023-02-06T07:03:14.161Z,2.80
2023-02-06T07:04:14.076Z,3.50
2023-02-06T07:05:14.068Z,3.30
2023-02-06T07:06:14.088Z,3.20
2023-02-06T07:07:14.077Z,3.90
2023-02-06T07:08:14.059Z,3.60
2023-02-06T07:09:14.036Z,3.50
2023-02-06T07:10:14.034Z,4.20
2023-02-06T07:11:14.066Z,3.50
2023-02-06T07:12:14.049Z,3.30
2023-02-06T07:13:13.990Z,3.60
2023-02-06T07:14:13.986Z,3.60
2023-02-06T07:15:13.967Z,3.70
2023-02-06T07:16:14.025Z,3.40
2023-02-06T07:17:13.950Z,3.40
2023-02-06T07:18:13.979Z,3.50
2023-02-06T07:19:13.925Z,3.60
2023-02-06T07:20:13.922Z,3.80
2023-02-06T07:21:13.930Z,3.20
2023-02-06T07:22:13.946Z,4.30
2023-02-06T07:23:13.931Z,3.30
2023-02-06T07:24:13.979Z,3.40
2023-02-06T07:25:13.872Z,3.70
2023-02-06T07:26:13.862Z,3.30
2023-02-06T07:27:13.865Z,3.50
2023-02-06T07:28:13.902Z,3.80
2023-02-06T07:29:13.826Z,3.50
2023-02-06T07:30:13.841Z,3.70
2023-02-06T07:31:13.828Z,4.10
2023-02-06T07:32:13.830Z,3.70
2023-02-06T07:33:13.821Z,3.70
2023-02-06T07:34:13.790Z,3.60
2023-02-06T07:35:13.794Z,3.40
2023-02-06T07:36:13.783Z,4.10
2023-02-06T07:37:13.775Z,3.70
2023-02-06T07:38:13.767Z,3.50
2023-02-06T07:39:13.755Z,4.30
2023-02-06T07:40:13.769Z,4.30
2023-02-06T07:41:13.710Z,3.80
2023-02-06T07:42:13.712Z,3.70
2023-02-06T07:43:13.720Z,3.90
2023-02-06T07:44:13.688Z,4.10
2023-02-06T07:45:13.676Z,4.20
2023-02-06T07:46:13.752Z,3.60
2023-02-06T07:47:13.689Z,4.10
2023-02-06T07:48:13.695Z,3.90
2023-02-06T07:49:13.667Z,4.10
2023-02-06T07:50:13.627Z,4.50
2023-02-06T07:51:13.637Z,3.60
2023-02-06T07:52:13.639Z,4.00
2023-02-06T07:53:13.622Z,4.10
2023-02-06T07:54:13.593Z,3.90
2023-02-06T07:55:13.588Z,3.70
2023-02-06T07:56:13.607Z,3.60
2023-02-06T07:57:13.555Z,4.10
2023-02-06T07:58:13.596Z,4.20
2023-02-06T07:59:13.543Z,4.00
2023-02-06T08:00:13.531Z,3.90
2023-02-06T08:01:13.556Z,3.90
2023-02-06T08:02:13.521Z,4.10
2023-02-06T08:03:13.519Z,3.80
2023-02-06T08:04:13.624Z,4.10
2023-02-06T08:05:13.484Z,4.50
2023-02-06T08:06:13.472Z,4.50
2023-02-06T08:07:13.457Z,4.30
2023-02-06T08:08:13.479Z,4.40
2023-02-06T08:09:13.489Z,4.60
2023-02-06T08:10:13.470Z,4.50
2023-02-06T08:11:13.440Z,4.90
2023-02-06T08:12:13.410Z,4.50
2023-02-06T08:13:13.414Z,4.70
2023-02-06T08:14:13.389Z,4.10
2023-02-06T08:15:13.397Z,4.80
2023-02-06T08:16:13.446Z,4.20
2023-02-06T08:17:13.368Z,4.50
2023-02-06T08:18:13.391Z,4.40
2023-02-06T08:19:13.359Z,4.20
2023-02-06T08:20:13.389Z,4.80
2023-02-06T08:21:13.332Z,5.20
2023-02-06T08:22:13.313Z,4.60
2023-02-06T08:23:13.328Z,4.50
2023-02-06T08:24:13.301Z,4.30
2023-02-06T08:25:13.295Z,4.70
2023-02-06T08:26:19.976Z,3.90
2023-02-06T08:27:15.916Z,4.50
2023-02-06T08:28:13.270Z,5.20
2023-02-06T08:29:13.225Z,5.20
2023-02-06T08:30:13.233Z,5.60
2023-02-06T08:31:13.288Z,4.70
2023-02-06T08:32:13.209Z,4.70
2023-02-06T08:33:13.185Z,4.80
2023-02-06T08:34:13.187Z,4.50
2023-02-06T08:35:13.177Z,5.20
2023-02-06T08:36:13.175Z,4.80
2023-02-06T08:37:13.367Z,4.70
2023-02-06T08:38:13.175Z,4.70
2023-02-06T08:39:13.138Z,4.60
2023-02-06T08:40:13.136Z,4.80
2023-02-06T08:41:13.100Z,5.00
2023-02-06T08:42:13.099Z,4.30
2023-02-06T08:43:13.101Z,4.70
2023-02-06T08:44:13.073Z,5.00
2023-02-06T08:45:13.083Z,4.40
2023-02-06T08:46:13.130Z,5.40
2023-02-06T08:47:13.052Z,5.50
2023-02-06T08:48:13.101Z,6.00
2023-02-06T08:49:13.029Z,5.20
2023-02-06T08:50:13.014Z,4.90
2023-02-06T08:51:12.999Z,5.00
2023-02-06T08:52:12.998Z,5.80
2023-02-06T08:53:12.997Z,4.80
2023-02-06T08:54:12.997Z,10.90
2023-02-06T08:55:12.974Z,19.10
2023-02-06T08:56:12.973Z,6.20
2023-02-06T08:57:12.947Z,5.10
2023-02-06T08:58:12.951Z,4.60
2023-02-06T08:59:12.920Z,4.70
2023-02-06T09:00:12.925Z,5.10
2023-02-06T09:01:12.923Z,4.90
2023-02-06T09:02:12.942Z,5.00
2023-02-06T09:03:12.884Z,5.10
2023-02-06T09:04:12.878Z,4.80
2023-02-06T09:05:12.875Z,5.10
2023-02-06T09:06:12.880Z,4.90
2023-02-06T09:07:12.846Z,4.40
2023-02-06T09:08:12.839Z,4.50
2023-02-06T09:09:12.844Z,4.80
2023-02-06T09:10:26.809Z,4.90
2023-02-06T09:11:12.829Z,4.80
2023-02-06T09:12:12.809Z,4.90
2023-02-06T09:13:12.785Z,4.60
2023-02-06T09:14:12.791Z,5.30
2023-02-06T09:15:12.758Z,4.80
2023-02-06T09:16:12.785Z,5.10
2023-02-06T09:17:12.732Z,5.10
2023-02-06T09:18:12.725Z,4.20
2023-02-06T09:19:12.753Z,4.60
2023-02-06T09:20:12.709Z,4.80
2023-02-06T09:21:12.703Z,4.60
2023-02-06T09:22:12.706Z,5.20
2023-02-06T09:23:12.673Z,4.60
2023-02-06T09:24:12.686Z,4.80
2023-02-06T09:25:12.650Z,5.00
2023-02-06T09:26:12.647Z,5.10
2023-02-06T09:27:12.647Z,4.80
2023-02-06T09:28:12.625Z,5.00
2023-02-06T09:29:12.617Z,5.40
2023-02-06T09:30:12.616Z,4.60
2023-02-06T09:31:12.668Z,4.30
2023-02-06T09:32:12.584Z,5.20
2023-02-06T09:33:12.571Z,5.30
2023-02-06T09:34:12.634Z,5.30
2023-02-06T09:35:12.551Z,5.40
2023-02-06T09:36:12.609Z,5.20
2023-02-06T09:37:12.546Z,5.00
2023-02-06T09:38:12.604Z,5.30
2023-02-06T09:39:12.530Z,5.00
2023-02-06T09:40:12.532Z,5.20
2023-02-06T09:41:12.494Z,4.70
2023-02-06T09:42:12.498Z,5.50
2023-02-06T09:43:12.474Z,5.60
2023-02-06T09:44:12.468Z,5.20
2023-02-06T09:45:12.459Z,5.90
2023-02-06T09:46:12.482Z,5.30
2023-02-06T09:47:12.444Z,5.00
2023-02-06T09:48:12.426Z,5.40
2023-02-06T09:49:12.437Z,5.30
2023-02-06T09:50:12.409Z,4.80
2023-02-06T09:51:12.385Z,5.20
2023-02-06T09:52:12.393Z,5.20
2023-02-06T09:53:12.359Z,5.90
2023-02-06T09:54:12.392Z,5.30
2023-02-06T09:55:12.353Z,5.80
2023-02-06T09:56:12.385Z,5.10
2023-02-06T09:57:12.380Z,5.10
2023-02-06T09:58:12.322Z,5.20
2023-02-06T09:59:12.327Z,5.10
2023-02-06T10:00:12.312Z,5.40
2023-02-06T10:01:12.286Z,6.70
2023-02-06T10:02:12.307Z,6.70
2023-02-06T10:03:12.271Z,6.20
2023-02-06T10:04:12.331Z,6.50
2023-02-06T10:05:12.240Z,5.90
2023-02-06T10:06:12.255Z,5.70
2023-02-06T10:07:12.257Z,5.00
2023-02-06T10:08:12.238Z,5.10
2023-02-06T10:09:12.249Z,5.10
2023-02-06T10:10:12.218Z,4.90
2023-02-06T10:11:12.192Z,4.70
2023-02-06T10:12:12.191Z,4.80
2023-02-06T10:13:12.164Z,4.80
2023-02-06T10:14:12.174Z,5.50
2023-02-06T10:15:12.153Z,5.00
2023-02-06T10:16:12.246Z,5.10
2023-02-06T10:17:12.152Z,5.40
2023-02-06T10:18:12.135Z,5.80
2023-02-06T10:19:12.152Z,4.90
2023-02-06T10:20:12.130Z,5.10
2023-02-06T10:21:12.106Z,4.90
2023-02-06T10:22:12.076Z,4.50
2023-02-06T10:23:12.064Z,5.50
2023-02-06T10:24:12.067Z,4.70
2023-02-06T10:25:12.193Z,5.20
2023-02-06T10:26:12.051Z,4.70
2023-02-06T10:27:12.044Z,4.80
2023-02-06T10:28:12.069Z,5.40
2023-02-06T10:29:12.028Z,6.20
2023-02-06T10:30:11.995Z,5.30
2023-02-06T10:31:12.057Z,5.60
2023-02-06T10:32:12.014Z,5.20
2023-02-06T10:33:24.808Z,6.20
2023-02-06T10:34:11.987Z,5.10
2023-02-06T10:35:11.943Z,5.70
2023-02-06T10:36:11.940Z,5.50
2023-02-06T10:37:11.933Z,5.50
2023-02-06T10:38:11.924Z,4.30
2023-02-06T10:39:11.940Z,6.00
2023-02-06T10:40:11.930Z,5.60
2023-02-06T10:41:11.889Z,5.60
2023-02-06T10:42:11.882Z,6.40
2023-02-06T10:43:11.873Z,5.50
2023-02-06T10:44:11.881Z,5.40
2023-02-06T10:45:19.618Z,4.90
2023-02-06T10:46:11.854Z,4.80
2023-02-06T10:47:11.836Z,5.20
2023-02-06T10:48:11.818Z,5.00
2023-02-06T10:49:11.861Z,5.80
2023-02-06T10:50:11.820Z,4.90
2023-02-06T10:51:11.804Z,5.00
2023-02-06T10:52:11.799Z,5.20
2023-02-06T10:53:11.781Z,5.70
2023-02-06T10:54:11.771Z,4.50
2023-02-06T10:55:11.754Z,5.20
2023-02-06T10:56:11.742Z,5.60
2023-02-06T10:57:11.744Z,5.50
2023-02-06T10:58:11.746Z,5.20
2023-02-06T10:59:11.744Z,5.40
2023-02-06T11:00:11.728Z,5.60
2023-02-06T11:01:25.196Z,5.30
2023-02-06T11:02:11.730Z,5.30
2023-02-06T11:03:11.681Z,6.20
2023-02-06T11:04:11.680Z,5.70
2023-02-06T11:05:11.648Z,6.20
2023-02-06T11:06:11.638Z,5.80
2023-02-06T11:07:11.632Z,6.50
2023-02-06T11:08:11.630Z,6.00
2023-02-06T11:09:11.639Z,6.30
2023-02-06T11:10:11.601Z,5.80
2023-02-06T11:11:11.606Z,5.60
2023-02-06T11:12:11.580Z,6.30
2023-02-06T11:13:11.599Z,8.00
2023-02-06T11:14:11.571Z,6.00
2023-02-06T11:15:11.564Z,5.90
2023-02-06T11:16:11.563Z,5.40
2023-02-06T11:17:11.528Z,6.00
2023-02-06T11:18:11.560Z,6.50
2023-02-06T11:19:11.540Z,6.50
2023-02-06T11:20:11.494Z,6.40
2023-02-06T11:21:11.489Z,5.50
2023-02-06T11:22:11.501Z,6.70
2023-02-06T11:23:11.497Z,7.40
2023-02-06T11:24:11.452Z,6.80
2023-02-06T11:25:11.456Z,5.80
2023-02-06T11:26:11.435Z,5.70
2023-02-06T11:27:11.446Z,6.70
2023-02-06T11:28:11.506Z,6.60
2023-02-06T11:29:11.440Z,6.20
2023-02-06T11:30:11.398Z,5.90
2023-02-06T11:31:11.389Z,5.30
2023-02-06T11:32:11.376Z,6.70
2023-02-06T11:33:11.384Z,6.60
2023-02-06T11:34:11.386Z,5.40
2023-02-06T11:35:11.351Z,6.50
2023-02-06T11:36:11.430Z,6.30
2023-02-06T11:37:11.327Z,6.00
2023-02-06T11:38:11.321Z,5.40
2023-02-06T11:39:11.326Z,6.40
2023-02-06T11:40:11.313Z,5.80
2023-02-06T11:41:11.545Z,5.70
2023-02-06T11:42:11.269Z,5.60
2023-02-06T11:43:11.357Z,5.40
2023-02-06T11:44:11.272Z,5.90
2023-02-06T11:45:11.253Z,10.60
2023-02-06T11:46:11.325Z,11.70
2023-02-06T11:47:11.234Z,8.00
2023-02-06T11:48:11.348Z,6.20
2023-02-06T11:49:11.219Z,6.00
2023-02-06T11:50:11.192Z,5.80
2023-02-06T11:51:11.197Z,5.70
2023-02-06T11:52:11.168Z,5.80
2023-02-06T11:53:11.175Z,6.10
2023-02-06T11:54:11.186Z,5.40
2023-02-06T11:55:11.158Z,6.00
2023-02-06T11:56:11.168Z,5.80
2023-02-06T11:57:11.124Z,5.70
2023-02-06T11:58:11.140Z,5.30
2023-02-06T11:59:11.238Z,7.20
2023-02-06T12:00:11.094Z,4.60
2023-02-06T12:01:11.081Z,4.90
2023-02-06T12:02:11.100Z,5.70
2023-02-06T12:03:11.224Z,4.50
2023-02-06T12:04:11.081Z,4.70
2023-02-06T12:05:11.054Z,5.60
2023-02-06T12:06:11.031Z,5.20
2023-02-06T12:07:11.022Z,4.30
2023-02-06T12:08:11.003Z,4.70
2023-02-06T12:09:11.018Z,5.20
2023-02-06T12:10:10.982Z,5.10
2023-02-06T12:11:12.462Z,4.80
2023-02-06T12:12:10.973Z,4.80
2023-02-06T12:13:10.970Z,5.10
2023-02-06T12:14:10.977Z,4.10
2023-02-06T12:15:45.610Z,5.80
2023-02-06T12:16:10.938Z,4.80
2023-02-06T12:17:10.930Z,4.60
2023-02-06T12:18:10.917Z,4.00
2023-02-06T12:19:10.937Z,4.30
2023-02-06T12:20:10.906Z,4.70
2023-02-06T12:21:10.883Z,4.70
2023-02-06T12:22:10.929Z,4.70
2023-02-06T12:23:10.860Z,4.70
2023-02-06T12:24:10.874Z,4.60
2023-02-06T12:25:10.830Z,5.00
2023-02-06T12:26:10.885Z,5.20
2023-02-06T12:27:10.838Z,4.30
2023-02-06T12:28:10.905Z,4.80
2023-02-06T12:29:10.809Z,4.40
2023-02-06T12:30:10.873Z,4.60
2023-02-06T12:31:10.880Z,5.30
2023-02-06T12:32:10.765Z,4.30
2023-02-06T12:33:10.765Z,4.70
2023-02-06T12:34:10.750Z,4.70
2023-02-06T12:35:10.722Z,4.30
2023-02-06T12:36:10.714Z,4.60
2023-02-06T12:37:10.744Z,5.10
2023-02-06T12:38:10.684Z,4.40
2023-02-06T12:39:10.695Z,4.70
2023-02-06T12:40:10.781Z,4.70
2023-02-06T12:41:10.676Z,5.00
2023-02-06T12:42:10.646Z,4.90
2023-02-06T12:43:10.655Z,5.80
2023-02-06T12:44:10.625Z,4.90
2023-02-06T12:45:10.648Z,4.90
2023-02-06T12:46:10.752Z,4.50
2023-02-06T12:47:10.601Z,4.90
2023-02-06T12:48:12.200Z,4.50
2023-02-06T12:49:10.586Z,4.90
2023-02-06T12:50:10.613Z,4.30
2023-02-06T12:51:10.549Z,4.70
2023-02-06T12:52:10.557Z,4.70
2023-02-06T12:53:10.524Z,3.80
2023-02-06T12:54:10.522Z,4.40
2023-02-06T12:55:10.538Z,4.10
2023-02-06T12:56:10.494Z,4.80
2023-02-06T12:57:10.493Z,4.60
2023-02-06T12:58:10.475Z,3.60
2023-02-06T12:59:10.460Z,4.80
2023-02-06T13:00:10.525Z,4.00
2023-02-06T13:01:25.874Z,4.80
2023-02-06T13:02:10.569Z,4.10
2023-02-06T13:03:10.476Z,4.30
2023-02-06T13:04:10.415Z,4.20
2023-02-06T13:05:10.423Z,3.80
2023-02-06T13:06:10.402Z,4.10
2023-02-06T13:07:10.392Z,4.70
2023-02-06T13:08:10.388Z,4.10
2023-02-06T13:09:10.404Z,4.40
2023-02-06T13:10:10.446Z,3.80
2023-02-06T13:11:10.358Z,4.20
2023-02-06T13:12:10.341Z,3.80
2023-02-06T13:13:10.324Z,4.10
2023-02-06T13:14:10.320Z,4.40
2023-02-06T13:15:10.367Z,3.80
2023-02-06T13:16:10.400Z,3.50
2023-02-06T13:17:10.290Z,4.10
2023-02-06T13:18:10.276Z,4.10